Terminal Aerodrome Forecast
Issued by NWS

Home | Current Version | Previous Version | Text Only | Print | Product List | Glossary On
Versions: 1 2 3 4 5 6 7 8 9 10 11 12 13 14 15 16 17 18 19
832
FTUS43 KMPX 101120
TAFRWF
TAF
KRWF 101120Z 1012/1112 04004KT 6SM -SHSN BKN040 OVC090
      TEMPO 1012/1016 3SM -SN OVC020
     FM101800 12005KT P6SM OVC035
     FM102300 07004KT P6SM OVC040
     FM110000 VRB02KT P6SM BKN050 OVC120=

USA.gov is the U.S. government's official web portal to all federal, state and local government web resources and services.